sensor_id;sensor_type;location;lat;lon;timestamp;temperature;humidity
43920;DHT22;29578;51.946;5.874;2022-09-24T00:01:55;13.90;85.80
43920;DHT22;29578;51.946;5.874;2022-09-24T00:04:24;14.00;85.90
43920;DHT22;29578;51.946;5.874;2022-09-24T00:06:50;13.90;86.00
43920;DHT22;29578;51.946;5.874;2022-09-24T00:09:19;13.90;86.00
43920;DHT22;29578;51.946;5.874;2022-09-24T00:11:47;13.90;86.10
43920;DHT22;29578;51.946;5.874;2022-09-24T00:14:15;14.00;86.10
43920;DHT22;29578;51.946;5.874;2022-09-24T00:16:42;13.90;86.10
43920;DHT22;29578;51.946;5.874;2022-09-24T00:19:09;13.80;86.00
43920;DHT22;29578;51.946;5.874;2022-09-24T00:21:37;13.90;86.20
43920;DHT22;29578;51.946;5.874;2022-09-24T00:24:06;13.90;86.20
43920;DHT22;29578;51.946;5.874;2022-09-24T00:26:32;13.80;86.20
43920;DHT22;29578;51.946;5.874;2022-09-24T00:29:18;13.90;86.30
43920;DHT22;29578;51.946;5.874;2022-09-24T00:31:44;13.90;86.30
43920;DHT22;29578;51.946;5.874;2022-09-24T00:34:10;13.80;86.30
43920;DHT22;29578;51.946;5.874;2022-09-24T00:36:36;13.90;86.40
43920;DHT22;29578;51.946;5.874;2022-09-24T00:39:03;13.90;86.50
43920;DHT22;29578;51.946;5.874;2022-09-24T00:41:31;13.90;86.50
43920;DHT22;29578;51.946;5.874;2022-09-24T00:43:58;13.80;86.50
43920;DHT22;29578;51.946;5.874;2022-09-24T00:49:12;13.80;86.60
43920;DHT22;29578;51.946;5.874;2022-09-24T00:51:39;13.80;86.60
43920;DHT22;29578;51.946;5.874;2022-09-24T00:54:08;13.80;86.60
43920;DHT22;29578;51.946;5.874;2022-09-24T00:56:37;13.80;86.70
43920;DHT22;29578;51.946;5.874;2022-09-24T00:59:08;13.70;86.70
43920;DHT22;29578;51.946;5.874;2022-09-24T01:01:36;13.70;86.70
43920;DHT22;29578;51.946;5.874;2022-09-24T01:04:03;13.70;86.80
43920;DHT22;29578;51.946;5.874;2022-09-24T01:06:29;13.70;86.80
43920;DHT22;29578;51.946;5.874;2022-09-24T01:08:56;13.70;86.80
43920;DHT22;29578;51.946;5.874;2022-09-24T01:11:44;13.70;86.90
43920;DHT22;29578;51.946;5.874;2022-09-24T01:14:24;13.80;87.00
43920;DHT22;29578;51.946;5.874;2022-09-24T01:17:13;13.70;87.00
43920;DHT22;29578;51.946;5.874;2022-09-24T01:26:07;13.70;87.10
43920;DHT22;29578;51.946;5.874;2022-09-24T01:31:37;13.70;87.20
43920;DHT22;29578;51.946;5.874;2022-09-24T01:34:05;13.70;87.10
43920;DHT22;29578;51.946;5.874;2022-09-24T01:36:35;13.70;87.10
43920;DHT22;29578;51.946;5.874;2022-09-24T01:39:03;13.60;87.10
43920;DHT22;29578;51.946;5.874;2022-09-24T01:41:30;13.60;87.10
43920;DHT22;29578;51.946;5.874;2022-09-24T01:43:59;13.60;87.20
43920;DHT22;29578;51.946;5.874;2022-09-24T01:46:29;13.60;87.30
43920;DHT22;29578;51.946;5.874;2022-09-24T01:48:56;13.70;87.30
43920;DHT22;29578;51.946;5.874;2022-09-24T01:51:29;13.60;87.10
43920;DHT22;29578;51.946;5.874;2022-09-24T01:54:08;13.60;87.20
43920;DHT22;29578;51.946;5.874;2022-09-24T01:56:40;13.50;87.10
43920;DHT22;29578;51.946;5.874;2022-09-24T01:59:21;13.60;87.30
43920;DHT22;29578;51.946;5.874;2022-09-24T02:01:57;13.60;87.30
43920;DHT22;29578;51.946;5.874;2022-09-24T02:04:26;13.70;87.40
43920;DHT22;29578;51.946;5.874;2022-09-24T02:06:57;13.60;87.30
43920;DHT22;29578;51.946;5.874;2022-09-24T02:09:36;13.60;87.30
43920;DHT22;29578;51.946;5.874;2022-09-24T02:12:10;13.50;87.40
43920;DHT22;29578;51.946;5.874;2022-09-24T02:14:45;13.70;87.50
43920;DHT22;29578;51.946;5.874;2022-09-24T02:17:14;13.50;87.40
43920;DHT22;29578;51.946;5.874;2022-09-24T02:19:41;13.50;87.50
43920;DHT22;29578;51.946;5.874;2022-09-24T02:22:08;13.50;87.50
43920;DHT22;29578;51.946;5.874;2022-09-24T02:24:48;13.50;87.50
43920;DHT22;29578;51.946;5.874;2022-09-24T02:27:15;13.50;87.60
43920;DHT22;29578;51.946;5.874;2022-09-24T02:29:41;13.50;87.60
43920;DHT22;29578;51.946;5.874;2022-09-24T02:32:09;13.50;87.60
43920;DHT22;29578;51.946;5.874;2022-09-24T02:34:42;13.50;87.70
43920;DHT22;29578;51.946;5.874;2022-09-24T02:37:14;13.50;87.70
43920;DHT22;29578;51.946;5.874;2022-09-24T02:39:40;13.50;87.60
43920;DHT22;29578;51.946;5.874;2022-09-24T02:42:08;13.50;87.70
43920;DHT22;29578;51.946;5.874;2022-09-24T02:44:35;13.50;87.70
43920;DHT22;29578;51.946;5.874;2022-09-24T02:47:01;13.50;87.70
43920;DHT22;29578;51.946;5.874;2022-09-24T02:49:27;13.50;87.70
43920;DHT22;29578;51.946;5.874;2022-09-24T02:51:53;13.50;87.70
43920;DHT22;29578;51.946;5.874;2022-09-24T02:54:20;13.50;87.80
43920;DHT22;29578;51.946;5.874;2022-09-24T02:56:47;13.50;87.80
43920;DHT22;29578;51.946;5.874;2022-09-24T02:59:13;13.50;87.80
43920;DHT22;29578;51.946;5.874;2022-09-24T03:01:39;13.50;87.80
43920;DHT22;29578;51.946;5.874;2022-09-24T03:04:05;13.50;87.90
43920;DHT22;29578;51.946;5.874;2022-09-24T03:06:31;13.50;87.90
43920;DHT22;29578;51.946;5.874;2022-09-24T03:08:57;13.50;87.80
43920;DHT22;29578;51.946;5.874;2022-09-24T03:11:23;13.50;87.80
43920;DHT22;29578;51.946;5.874;2022-09-24T03:13:49;13.50;87.90
43920;DHT22;29578;51.946;5.874;2022-09-24T03:16:16;13.50;87.80
43920;DHT22;29578;51.946;5.874;2022-09-24T03:18:42;13.50;87.80
43920;DHT22;29578;51.946;5.874;2022-09-24T03:21:10;13.50;87.90
43920;DHT22;29578;51.946;5.874;2022-09-24T03:23:36;13.50;88.50
43920;DHT22;29578;51.946;5.874;2022-09-24T03:26:03;13.50;87.90
43920;DHT22;29578;51.946;5.874;2022-09-24T03:28:29;13.50;87.90
43920;DHT22;29578;51.946;5.874;2022-09-24T03:30:55;13.50;87.90
43920;DHT22;29578;51.946;5.874;2022-09-24T03:33:30;13.50;87.90
43920;DHT22;29578;51.946;5.874;2022-09-24T03:35:59;13.50;88.00
43920;DHT22;29578;51.946;5.874;2022-09-24T03:38:26;13.50;88.00
43920;DHT22;29578;51.946;5.874;2022-09-24T03:40:51;13.50;88.00
43920;DHT22;29578;51.946;5.874;2022-09-24T03:43:18;13.50;88.00
43920;DHT22;29578;51.946;5.874;2022-09-24T03:45:43;13.40;87.90
43920;DHT22;29578;51.946;5.874;2022-09-24T03:48:09;13.50;88.10
43920;DHT22;29578;51.946;5.874;2022-09-24T03:50:35;13.50;88.00
43920;DHT22;29578;51.946;5.874;2022-09-24T03:53:02;13.50;88.00
43920;DHT22;29578;51.946;5.874;2022-09-24T03:55:27;13.50;88.00
43920;DHT22;29578;51.946;5.874;2022-09-24T03:57:53;13.50;88.00
43920;DHT22;29578;51.946;5.874;2022-09-24T04:00:19;13.50;88.00
43920;DHT22;29578;51.946;5.874;2022-09-24T04:02:46;13.50;88.00
43920;DHT22;29578;51.946;5.874;2022-09-24T04:05:12;13.50;88.00
43920;DHT22;29578;51.946;5.874;2022-09-24T04:07:38;13.50;88.00
43920;DHT22;29578;51.946;5.874;2022-09-24T04:10:04;13.50;88.00
43920;DHT22;29578;51.946;5.874;2022-09-24T04:12:30;13.50;88.00
43920;DHT22;29578;51.946;5.874;2022-09-24T04:14:56;13.40;87.90
43920;DHT22;29578;51.946;5.874;2022-09-24T04:17:21;13.50;88.00
43920;DHT22;29578;51.946;5.874;2022-09-24T04:19:47;13.50;88.10
43920;DHT22;29578;51.946;5.874;2022-09-24T04:22:13;13.50;88.10
43920;DHT22;29578;51.946;5.874;2022-09-24T04:24:39;13.50;88.00
43920;DHT22;29578;51.946;5.874;2022-09-24T04:27:05;13.40;88.10
43920;DHT22;29578;51.946;5.874;2022-09-24T04:29:30;13.40;88.00
43920;DHT22;29578;51.946;5.874;2022-09-24T04:31:56;13.50;88.70
43920;DHT22;29578;51.946;5.874;2022-09-24T04:34:24;13.50;88.10
43920;DHT22;29578;51.946;5.874;2022-09-24T04:36:50;13.50;88.10
43920;DHT22;29578;51.946;5.874;2022-09-24T04:39:16;13.50;88.10
43920;DHT22;29578;51.946;5.874;2022-09-24T04:41:42;13.50;88.10
43920;DHT22;29578;51.946;5.874;2022-09-24T04:44:08;13.50;88.10
43920;DHT22;29578;51.946;5.874;2022-09-24T04:46:35;13.40;88.10
43920;DHT22;29578;51.946;5.874;2022-09-24T04:49:01;13.50;88.10
43920;DHT22;29578;51.946;5.874;2022-09-24T04:51:27;13.50;88.20
43920;DHT22;29578;51.946;5.874;2022-09-24T04:53:53;13.50;88.10
43920;DHT22;29578;51.946;5.874;2022-09-24T04:56:18;13.50;88.10
43920;DHT22;29578;51.946;5.874;2022-09-24T04:58:49;13.50;88.20
43920;DHT22;29578;51.946;5.874;2022-09-24T05:01:15;13.50;88.20
43920;DHT22;29578;51.946;5.874;2022-09-24T05:03:40;13.50;88.20
43920;DHT22;29578;51.946;5.874;2022-09-24T05:06:06;13.50;88.20
43920;DHT22;29578;51.946;5.874;2022-09-24T05:08:32;13.50;88.20
43920;DHT22;29578;51.946;5.874;2022-09-24T05:10:57;13.50;88.20
43920;DHT22;29578;51.946;5.874;2022-09-24T05:13:24;13.50;88.20
43920;DHT22;29578;51.946;5.874;2022-09-24T05:15:50;13.50;88.20
43920;DHT22;29578;51.946;5.874;2022-09-24T05:18:16;13.50;88.20
43920;DHT22;29578;51.946;5.874;2022-09-24T05:20:41;13.50;88.20
43920;DHT22;29578;51.946;5.874;2022-09-24T05:23:07;13.50;88.20
43920;DHT22;29578;51.946;5.874;2022-09-24T05:25:33;13.50;88.20
43920;DHT22;29578;51.946;5.874;2022-09-24T05:28:19;13.50;88.20
43920;DHT22;29578;51.946;5.874;2022-09-24T05:30:46;13.60;88.30
43920;DHT22;29578;51.946;5.874;2022-09-24T05:33:12;13.50;88.20
43920;DHT22;29578;51.946;5.874;2022-09-24T05:35:38;13.50;88.20
43920;DHT22;29578;51.946;5.874;2022-09-24T05:38:03;13.50;88.20
43920;DHT22;29578;51.946;5.874;2022-09-24T05:40:29;13.70;88.30
43920;DHT22;29578;51.946;5.874;2022-09-24T05:43:15;13.50;88.20
43920;DHT22;29578;51.946;5.874;2022-09-24T05:45:44;13.50;88.20
43920;DHT22;29578;51.946;5.874;2022-09-24T05:48:10;13.50;88.30
43920;DHT22;29578;51.946;5.874;2022-09-24T05:50:36;13.50;88.20
43920;DHT22;29578;51.946;5.874;2022-09-24T05:53:04;13.50;88.20
43920;DHT22;29578;51.946;5.874;2022-09-24T05:55:30;13.50;88.20
43920;DHT22;29578;51.946;5.874;2022-09-24T05:58:05;13.50;88.20
43920;DHT22;29578;51.946;5.874;2022-09-24T06:00:32;13.60;88.30
43920;DHT22;29578;51.946;5.874;2022-09-24T06:03:03;13.50;88.20
43920;DHT22;29578;51.946;5.874;2022-09-24T06:05:29;13.50;88.20
43920;DHT22;29578;51.946;5.874;2022-09-24T06:07:55;13.50;88.20
43920;DHT22;29578;51.946;5.874;2022-09-24T06:10:24;13.50;88.20
43920;DHT22;29578;51.946;5.874;2022-09-24T06:12:52;13.50;88.30
43920;DHT22;29578;51.946;5.874;2022-09-24T06:15:18;13.50;88.30
43920;DHT22;29578;51.946;5.874;2022-09-24T06:17:45;13.50;88.30
43920;DHT22;29578;51.946;5.874;2022-09-24T06:20:11;13.50;88.40
43920;DHT22;29578;51.946;5.874;2022-09-24T06:22:36;13.50;88.40
43920;DHT22;29578;51.946;5.874;2022-09-24T06:25:02;13.40;88.30
43920;DHT22;29578;51.946;5.874;2022-09-24T06:27:28;13.50;88.40
43920;DHT22;29578;51.946;5.874;2022-09-24T06:29:54;13.50;88.40
43920;DHT22;29578;51.946;5.874;2022-09-24T06:32:22;13.50;88.40
43920;DHT22;29578;51.946;5.874;2022-09-24T06:34:48;13.50;88.50
43920;DHT22;29578;51.946;5.874;2022-09-24T06:37:14;13.50;88.50
43920;DHT22;29578;51.946;5.874;2022-09-24T06:39:40;13.60;88.70
43920;DHT22;29578;51.946;5.874;2022-09-24T06:42:05;13.60;88.50
43920;DHT22;29578;51.946;5.874;2022-09-24T06:44:31;13.50;88.60
43920;DHT22;29578;51.946;5.874;2022-09-24T06:46:59;13.50;88.50
43920;DHT22;29578;51.946;5.874;2022-09-24T06:49:26;13.50;88.60
43920;DHT22;29578;51.946;5.874;2022-09-24T06:51:53;13.50;88.70
43920;DHT22;29578;51.946;5.874;2022-09-24T06:54:19;13.50;88.70
43920;DHT22;29578;51.946;5.874;2022-09-24T06:56:45;13.50;88.60
43920;DHT22;29578;51.946;5.874;2022-09-24T06:59:11;13.50;88.70
43920;DHT22;29578;51.946;5.874;2022-09-24T07:01:37;13.50;88.70
43920;DHT22;29578;51.946;5.874;2022-09-24T07:04:03;13.50;88.70
43920;DHT22;29578;51.946;5.874;2022-09-24T07:06:29;13.50;88.70
43920;DHT22;29578;51.946;5.874;2022-09-24T07:09:15;13.50;88.80
43920;DHT22;29578;51.946;5.874;2022-09-24T07:11:41;13.50;88.90
43920;DHT22;29578;51.946;5.874;2022-09-24T07:14:09;13.40;88.80
43920;DHT22;29578;51.946;5.874;2022-09-24T07:16:35;13.50;89.00
43920;DHT22;29578;51.946;5.874;2022-09-24T07:19:00;13.40;89.00
43920;DHT22;29578;51.946;5.874;2022-09-24T07:21:27;13.40;89.00
43920;DHT22;29578;51.946;5.874;2022-09-24T07:23:53;13.60;89.10
43920;DHT22;29578;51.946;5.874;2022-09-24T07:26:18;13.50;89.10
43920;DHT22;29578;51.946;5.874;2022-09-24T07:28:44;13.50;89.10
43920;DHT22;29578;51.946;5.874;2022-09-24T07:31:10;13.50;89.00
43920;DHT22;29578;51.946;5.874;2022-09-24T07:33:36;13.50;89.10
43920;DHT22;29578;51.946;5.874;2022-09-24T07:36:04;13.50;89.20
43920;DHT22;29578;51.946;5.874;2022-09-24T07:38:31;13.50;89.20
43920;DHT22;29578;51.946;5.874;2022-09-24T07:40:59;13.50;89.20
43920;DHT22;29578;51.946;5.874;2022-09-24T07:43:25;13.50;89.20
43920;DHT22;29578;51.946;5.874;2022-09-24T07:45:51;13.50;89.20
43920;DHT22;29578;51.946;5.874;2022-09-24T07:48:17;13.60;89.20
43920;DHT22;29578;51.946;5.874;2022-09-24T07:50:43;13.50;89.10
43920;DHT22;29578;51.946;5.874;2022-09-24T07:53:10;13.50;89.20
43920;DHT22;29578;51.946;5.874;2022-09-24T07:55:37;13.50;89.30
43920;DHT22;29578;51.946;5.874;2022-09-24T07:58:06;13.60;89.40
43920;DHT22;29578;51.946;5.874;2022-09-24T08:00:32;13.60;89.30
43920;DHT22;29578;51.946;5.874;2022-09-24T08:02:58;13.60;89.30
43920;DHT22;29578;51.946;5.874;2022-09-24T08:05:24;13.60;89.30
43920;DHT22;29578;51.946;5.874;2022-09-24T08:07:51;13.60;89.20
43920;DHT22;29578;51.946;5.874;2022-09-24T08:10:17;13.70;89.40
43920;DHT22;29578;51.946;5.874;2022-09-24T08:12:43;13.60;89.20
43920;DHT22;29578;51.946;5.874;2022-09-24T08:15:09;13.60;89.20
43920;DHT22;29578;51.946;5.874;2022-09-24T08:17:35;13.60;89.20
43920;DHT22;29578;51.946;5.874;2022-09-24T08:20:01;13.60;89.30
43920;DHT22;29578;51.946;5.874;2022-09-24T08:22:26;13.60;89.40
43920;DHT22;29578;51.946;5.874;2022-09-24T08:24:52;13.60;89.40
43920;DHT22;29578;51.946;5.874;2022-09-24T08:27:19;13.60;89.30
43920;DHT22;29578;51.946;5.874;2022-09-24T08:29:45;13.70;89.30
43920;DHT22;29578;51.946;5.874;2022-09-24T08:32:11;13.70;89.30
43920;DHT22;29578;51.946;5.874;2022-09-24T08:34:38;13.70;89.30
43920;DHT22;29578;51.946;5.874;2022-09-24T08:37:05;13.70;89.30
43920;DHT22;29578;51.946;5.874;2022-09-24T08:39:32;13.70;89.40
43920;DHT22;29578;51.946;5.874;2022-09-24T08:42:03;13.70;89.30
43920;DHT22;29578;51.946;5.874;2022-09-24T08:44:38;13.80;89.40
43920;DHT22;29578;51.946;5.874;2022-09-24T08:47:37;13.80;89.40
43920;DHT22;29578;51.946;5.874;2022-09-24T08:50:23;13.80;89.40
43920;DHT22;29578;51.946;5.874;2022-09-24T08:53:11;13.90;89.40
43920;DHT22;29578;51.946;5.874;2022-09-24T08:55:45;13.80;89.40
43920;DHT22;29578;51.946;5.874;2022-09-24T08:58:30;13.90;89.40
43920;DHT22;29578;51.946;5.874;2022-09-24T09:01:11;13.90;89.40
43920;DHT22;29578;51.946;5.874;2022-09-24T09:03:42;13.90;89.30
43920;DHT22;29578;51.946;5.874;2022-09-24T09:06:27;13.80;89.30
43920;DHT22;29578;51.946;5.874;2022-09-24T09:09:10;13.80;89.30
43920;DHT22;29578;51.946;5.874;2022-09-24T09:11:38;13.80;89.50
43920;DHT22;29578;51.946;5.874;2022-09-24T09:14:13;13.70;89.40
43920;DHT22;29578;51.946;5.874;2022-09-24T09:16:54;13.80;89.60
43920;DHT22;29578;51.946;5.874;2022-09-24T09:19:27;13.80;89.60
43920;DHT22;29578;51.946;5.874;2022-09-24T09:21:59;13.80;89.60
43920;DHT22;29578;51.946;5.874;2022-09-24T09:24:38;13.80;89.60
43920;DHT22;29578;51.946;5.874;2022-09-24T09:27:11;13.80;89.60
43920;DHT22;29578;51.946;5.874;2022-09-24T09:29:40;13.80;89.60
43920;DHT22;29578;51.946;5.874;2022-09-24T09:35:16;13.90;89.60
43920;DHT22;29578;51.946;5.874;2022-09-24T09:37:56;13.90;89.50
43920;DHT22;29578;51.946;5.874;2022-09-24T09:40:36;13.90;89.60
43920;DHT22;29578;51.946;5.874;2022-09-24T09:43:08;13.90;89.60
43920;DHT22;29578;51.946;5.874;2022-09-24T09:45:56;13.80;89.50
43920;DHT22;29578;51.946;5.874;2022-09-24T09:48:28;13.80;89.60
43920;DHT22;29578;51.946;5.874;2022-09-24T09:51:02;13.90;89.70
43920;DHT22;29578;51.946;5.874;2022-09-24T09:53:29;13.80;89.60
43920;DHT22;29578;51.946;5.874;2022-09-24T09:56:03;13.90;89.70
43920;DHT22;29578;51.946;5.874;2022-09-24T09:58:32;13.90;89.70
43920;DHT22;29578;51.946;5.874;2022-09-24T10:01:05;13.80;89.70
43920;DHT22;29578;51.946;5.874;2022-09-24T10:03:34;13.90;89.80
43920;DHT22;29578;51.946;5.874;2022-09-24T10:06:22;14.00;89.70
43920;DHT22;29578;51.946;5.874;2022-09-24T10:08:48;14.10;89.70
43920;DHT22;29578;51.946;5.874;2022-09-24T10:11:16;14.00;89.60
43920;DHT22;29578;51.946;5.874;2022-09-24T10:13:42;14.00;89.60
43920;DHT22;29578;51.946;5.874;2022-09-24T10:16:08;14.00;89.60
43920;DHT22;29578;51.946;5.874;2022-09-24T10:18:40;14.10;89.70
43920;DHT22;29578;51.946;5.874;2022-09-24T10:21:09;14.10;89.70
43920;DHT22;29578;51.946;5.874;2022-09-24T10:23:40;14.10;89.70
43920;DHT22;29578;51.946;5.874;2022-09-24T10:26:09;14.10;89.70
43920;DHT22;29578;51.946;5.874;2022-09-24T10:28:49;14.10;89.70
43920;DHT22;29578;51.946;5.874;2022-09-24T10:31:37;14.00;89.70
43920;DHT22;29578;51.946;5.874;2022-09-24T10:34:20;14.00;89.70
43920;DHT22;29578;51.946;5.874;2022-09-24T10:36:53;14.10;89.80
43920;DHT22;29578;51.946;5.874;2022-09-24T10:39:22;14.10;89.70
43920;DHT22;29578;51.946;5.874;2022-09-24T10:41:50;14.10;89.70
43920;DHT22;29578;51.946;5.874;2022-09-24T10:44:17;14.20;89.70
43920;DHT22;29578;51.946;5.874;2022-09-24T10:50:02;14.30;89.60
43920;DHT22;29578;51.946;5.874;2022-09-24T10:55:35;14.20;89.50
43920;DHT22;29578;51.946;5.874;2022-09-24T10:58:24;14.20;89.60
43920;DHT22;29578;51.946;5.874;2022-09-24T11:01:21;14.20;89.70
43920;DHT22;29578;51.946;5.874;2022-09-24T11:04:10;14.10;89.70
43920;DHT22;29578;51.946;5.874;2022-09-24T11:10:04;14.10;89.80
43920;DHT22;29578;51.946;5.874;2022-09-24T11:12:56;14.20;89.80
43920;DHT22;29578;51.946;5.874;2022-09-24T11:15:50;14.20;89.80
43920;DHT22;29578;51.946;5.874;2022-09-24T11:21:47;14.20;90.00
43920;DHT22;29578;51.946;5.874;2022-09-24T11:24:29;14.20;89.90
43920;DHT22;29578;51.946;5.874;2022-09-24T11:27:08;14.10;90.00
43920;DHT22;29578;51.946;5.874;2022-09-24T11:29:59;14.30;90.00
43920;DHT22;29578;51.946;5.874;2022-09-24T11:32:44;14.30;90.00
43920;DHT22;29578;51.946;5.874;2022-09-24T11:35:43;14.20;90.00
43920;DHT22;29578;51.946;5.874;2022-09-24T11:38:14;14.10;90.00
43920;DHT22;29578;51.946;5.874;2022-09-24T11:40:57;14.10;90.00
43920;DHT22;29578;51.946;5.874;2022-09-24T11:46:37;14.20;90.00
43920;DHT22;29578;51.946;5.874;2022-09-24T11:49:45;14.10;90.00
43920;DHT22;29578;51.946;5.874;2022-09-24T11:52:31;14.20;90.00
43920;DHT22;29578;51.946;5.874;2022-09-24T11:57:40;14.00;90.00
43920;DHT22;29578;51.946;5.874;2022-09-24T12:00:16;14.10;90.00
43920;DHT22;29578;51.946;5.874;2022-09-24T12:02:53;14.10;90.10
43920;DHT22;29578;51.946;5.874;2022-09-24T12:05:34;14.20;90.10
43920;DHT22;29578;51.946;5.874;2022-09-24T12:08:12;14.20;90.00
43920;DHT22;29578;51.946;5.874;2022-09-24T12:10:48;14.20;90.00
43920;DHT22;29578;51.946;5.874;2022-09-24T12:13:21;14.20;90.00
43920;DHT22;29578;51.946;5.874;2022-09-24T12:16:01;14.30;90.00
43920;DHT22;29578;51.946;5.874;2022-09-24T12:18:44;14.20;90.00
43920;DHT22;29578;51.946;5.874;2022-09-24T12:21:17;14.30;90.00
43920;DHT22;29578;51.946;5.874;2022-09-24T12:23:46;14.40;90.00
43920;DHT22;29578;51.946;5.874;2022-09-24T12:26:14;14.40;89.80
43920;DHT22;29578;51.946;5.874;2022-09-24T12:28:57;14.40;89.80
43920;DHT22;29578;51.946;5.874;2022-09-24T12:37:38;14.40;90.00
43920;DHT22;29578;51.946;5.874;2022-09-24T12:40:34;14.40;89.90
43920;DHT22;29578;51.946;5.874;2022-09-24T12:43:12;14.50;90.00
43920;DHT22;29578;51.946;5.874;2022-09-24T12:45:43;14.40;90.00
43920;DHT22;29578;51.946;5.874;2022-09-24T12:48:13;14.50;90.00
43920;DHT22;29578;51.946;5.874;2022-09-24T12:50:40;14.50;90.00
43920;DHT22;29578;51.946;5.874;2022-09-24T12:53:22;14.50;90.00
43920;DHT22;29578;51.946;5.874;2022-09-24T12:55:58;14.50;90.00
43920;DHT22;29578;51.946;5.874;2022-09-24T12:58:29;14.40;90.00
43920;DHT22;29578;51.946;5.874;2022-09-24T13:06:36;14.50;90.00
43920;DHT22;29578;51.946;5.874;2022-09-24T13:09:21;14.60;90.00
43920;DHT22;29578;51.946;5.874;2022-09-24T13:14:41;14.50;90.00
43920;DHT22;29578;51.946;5.874;2022-09-24T13:17:11;14.50;90.00
43920;DHT22;29578;51.946;5.874;2022-09-24T13:19:41;14.50;90.00
43920;DHT22;29578;51.946;5.874;2022-09-24T13:22:25;14.50;90.00
43920;DHT22;29578;51.946;5.874;2022-09-24T13:25:03;14.50;90.10
43920;DHT22;29578;51.946;5.874;2022-09-24T13:27:36;14.50;90.00
43920;DHT22;29578;51.946;5.874;2022-09-24T13:30:13;14.50;90.00
43920;DHT22;29578;51.946;5.874;2022-09-24T13:32:58;14.50;90.00
43920;DHT22;29578;51.946;5.874;2022-09-24T13:35:31;14.50;90.00
43920;DHT22;29578;51.946;5.874;2022-09-24T13:38:07;14.50;90.00
43920;DHT22;29578;51.946;5.874;2022-09-24T13:40:37;14.50;90.00
43920;DHT22;29578;51.946;5.874;2022-09-24T13:43:13;14.50;90.00
43920;DHT22;29578;51.946;5.874;2022-09-24T13:45:41;14.50;90.00
43920;DHT22;29578;51.946;5.874;2022-09-24T13:48:29;14.60;90.00
43920;DHT22;29578;51.946;5.874;2022-09-24T13:51:00;14.60;90.00
43920;DHT22;29578;51.946;5.874;2022-09-24T13:56:22;14.50;90.00
43920;DHT22;29578;51.946;5.874;2022-09-24T13:58:48;14.50;90.00
43920;DHT22;29578;51.946;5.874;2022-09-24T14:01:25;14.40;90.00
43920;DHT22;29578;51.946;5.874;2022-09-24T14:04:00;14.50;90.10
43920;DHT22;29578;51.946;5.874;2022-09-24T14:06:39;14.50;90.10
43920;DHT22;29578;51.946;5.874;2022-09-24T14:09:25;14.50;90.10
43920;DHT22;29578;51.946;5.874;2022-09-24T14:11:54;14.50;90.10
43920;DHT22;29578;51.946;5.874;2022-09-24T14:14:22;14.50;90.10
43920;DHT22;29578;51.946;5.874;2022-09-24T14:16:50;14.50;90.10
43920;DHT22;29578;51.946;5.874;2022-09-24T14:19:19;14.50;90.10
43920;DHT22;29578;51.946;5.874;2022-09-24T14:21:49;14.50;90.10
43920;DHT22;29578;51.946;5.874;2022-09-24T14:24:26;14.50;90.10
43920;DHT22;29578;51.946;5.874;2022-09-24T14:26:58;14.50;90.10
43920;DHT22;29578;51.946;5.874;2022-09-24T14:29:38;14.40;90.10
43920;DHT22;29578;51.946;5.874;2022-09-24T14:32:05;14.40;90.20
43920;DHT22;29578;51.946;5.874;2022-09-24T14:34:42;14.50;90.20
43920;DHT22;29578;51.946;5.874;2022-09-24T14:37:15;14.40;90.20
43920;DHT22;29578;51.946;5.874;2022-09-24T14:39:43;14.50;90.20
43920;DHT22;29578;51.946;5.874;2022-09-24T14:42:20;14.40;90.20
43920;DHT22;29578;51.946;5.874;2022-09-24T14:44:47;14.40;90.30
43920;DHT22;29578;51.946;5.874;2022-09-24T14:47:32;14.40;90.30
43920;DHT22;29578;51.946;5.874;2022-09-24T14:49:58;14.40;90.30
43920;DHT22;29578;51.946;5.874;2022-09-24T14:52:31;14.40;90.30
43920;DHT22;29578;51.946;5.874;2022-09-24T14:57:48;14.30;90.20
43920;DHT22;29578;51.946;5.874;2022-09-24T15:00:20;14.40;90.20
43920;DHT22;29578;51.946;5.874;2022-09-24T15:02:49;14.40;90.20
43920;DHT22;29578;51.946;5.874;2022-09-24T15:05:16;14.40;90.20
43920;DHT22;29578;51.946;5.874;2022-09-24T15:07:49;14.30;90.20
43920;DHT22;29578;51.946;5.874;2022-09-24T15:10:19;14.40;90.20
43920;DHT22;29578;51.946;5.874;2022-09-24T15:12:47;14.40;90.20
43920;DHT22;29578;51.946;5.874;2022-09-24T15:15:31;14.30;90.20
43920;DHT22;29578;51.946;5.874;2022-09-24T15:17:57;14.30;90.20
43920;DHT22;29578;51.946;5.874;2022-09-24T15:20:30;14.30;90.20
43920;DHT22;29578;51.946;5.874;2022-09-24T15:26:32;14.30;90.20
43920;DHT22;29578;51.946;5.874;2022-09-24T15:29:28;14.30;90.20
43920;DHT22;29578;51.946;5.874;2022-09-24T15:32:04;14.20;90.20
43920;DHT22;29578;51.946;5.874;2022-09-24T15:34:50;14.30;90.20
43920;DHT22;29578;51.946;5.874;2022-09-24T15:37:45;14.30;90.20
43920;DHT22;29578;51.946;5.874;2022-09-24T15:40:23;14.50;90.20
43920;DHT22;29578;51.946;5.874;2022-09-24T15:42:55;14.30;90.20
43920;DHT22;29578;51.946;5.874;2022-09-24T15:45:23;14.40;90.20
43920;DHT22;29578;51.946;5.874;2022-09-24T15:47:50;14.40;90.20
43920;DHT22;29578;51.946;5.874;2022-09-24T15:50:18;14.30;90.10
43920;DHT22;29578;51.946;5.874;2022-09-24T15:52:51;14.50;90.20
43920;DHT22;29578;51.946;5.874;2022-09-24T15:55:19;14.40;90.20
43920;DHT22;29578;51.946;5.874;2022-09-24T15:57:45;14.50;90.20
43920;DHT22;29578;51.946;5.874;2022-09-24T16:00:16;14.50;90.20
43920;DHT22;29578;51.946;5.874;2022-09-24T16:09:53;14.50;90.20
43920;DHT22;29578;51.946;5.874;2022-09-24T16:12:20;14.40;90.20
43920;DHT22;29578;51.946;5.874;2022-09-24T16:26:00;14.40;90.20
43920;DHT22;29578;51.946;5.874;2022-09-24T16:28:26;14.30;90.20
43920;DHT22;29578;51.946;5.874;2022-09-24T16:30:53;14.40;90.20
43920;DHT22;29578;51.946;5.874;2022-09-24T16:33:19;14.30;90.20
43920;DHT22;29578;51.946;5.874;2022-09-24T16:35:45;14.30;90.20
43920;DHT22;29578;51.946;5.874;2022-09-24T16:38:11;14.30;90.20
43920;DHT22;29578;51.946;5.874;2022-09-24T16:40:38;14.30;90.20
43920;DHT22;29578;51.946;5.874;2022-09-24T16:43:04;14.40;90.30
43920;DHT22;29578;51.946;5.874;2022-09-24T16:45:31;14.40;90.60
43920;DHT22;29578;51.946;5.874;2022-09-24T16:47:57;14.30;90.20
43920;DHT22;29578;51.946;5.874;2022-09-24T16:50:24;14.40;90.30
43920;DHT22;29578;51.946;5.874;2022-09-24T16:52:50;14.30;90.30
43920;DHT22;29578;51.946;5.874;2022-09-24T16:55:20;14.30;90.30
43920;DHT22;29578;51.946;5.874;2022-09-24T16:57:50;14.30;90.30
43920;DHT22;29578;51.946;5.874;2022-09-24T17:00:16;14.30;90.30
43920;DHT22;29578;51.946;5.874;2022-09-24T17:02:43;14.30;90.30
43920;DHT22;29578;51.946;5.874;2022-09-24T17:05:09;14.20;90.30
43920;DHT22;29578;51.946;5.874;2022-09-24T17:07:35;14.30;90.30
43920;DHT22;29578;51.946;5.874;2022-09-24T17:10:00;14.30;90.30